Time;durP1;ratioP1;P1;durP2;ratioP2;P2;SDS_P1;SDS_P2;PMS_P1;PMS_P2;Temp;Humidity;BMP_temperature;BMP_pressure;BME280_temperature;BME280_humidity;BME280_pressure;Samples;Min_cycle;Max_cycle;Signal;HPM_P1;HPM_P2
2021/04/13 00:02:48;;;;;;;30.23;17.92;;;;;;;2.55;69.85;101703.66;5092719;28;20052;-56
2021/04/13 00:05:35;;;;;;;29.65;18.38;;;;;;;2.48;70.11;101713.91;5093880;28;20048;-55
2021/04/13 00:08:08;;;;;;;28.23;18.50;;;;;;;2.47;70.72;101712.22;5089462;28;20058;-56
2021/04/13 00:10:41;;;;;;;28.23;18.55;;;;;;;2.46;70.72;101713.31;5093836;28;20058;-55
2021/04/13 00:13:10;;;;;;;25.67;16.73;;;;;;;2.42;69.94;101707.41;5093319;28;20051;-56
2021/04/13 00:15:43;;;;;;;25.73;17.80;;;;;;;2.34;70.49;101707.72;5074107;28;20053;-58
2021/04/13 00:18:12;;;;;;;28.27;17.45;;;;;;;2.32;71.00;101711.78;5088989;28;20055;-56
2021/04/13 00:20:44;;;;;;;28.33;17.30;;;;;;;2.24;70.70;101712.91;5094233;28;20048;-56
2021/04/13 00:23:14;;;;;;;28.23;17.33;;;;;;;2.24;70.73;101711.00;5092946;28;20048;-57
2021/04/13 00:25:47;;;;;;;;;;;;;;;2.26;70.98;101702.53;5093068;28;20059;-57
2021/04/13 00:28:14;;;;;;;28.00;17.05;;;;;;;2.19;71.04;101713.59;5088282;28;19924;-52
2021/04/13 00:30:43;;;;;;;30.40;19.13;;;;;;;2.23;71.12;101708.50;5091716;28;20067;-55
2021/04/13 00:33:15;;;;;;;29.77;18.60;;;;;;;2.24;71.43;101712.91;5093604;28;20401;-58
2021/04/13 00:35:45;;;;;;;29.90;19.48;;;;;;;2.26;70.84;101710.78;5092006;28;20477;-58
2021/04/13 00:38:15;;;;;;;30.75;19.17;;;;;;;2.26;71.04;101709.94;5093294;28;20048;-57
2021/04/13 00:40:44;;;;;;;31.80;19.02;;;;;;;2.23;71.77;101720.31;5092232;28;20497;-58
2021/04/13 00:43:14;;;;;;;31.05;20.42;;;;;;;2.23;71.65;101712.06;5093492;28;20048;-54
2021/04/13 00:45:46;;;;;;;33.13;19.63;;;;;;;2.20;71.27;101714.44;5091413;28;20495;-55
2021/04/13 00:48:22;;;;;;;30.25;18.55;;;;;;;2.20;72.02;101711.69;5073154;28;20512;-57
2021/04/13 00:51:04;;;;;;;30.77;18.67;;;;;;;2.19;71.50;101712.75;5082279;28;20059;-54
2021/04/13 00:53:34;;;;;;;30.45;18.95;;;;;;;2.20;71.26;101704.25;5088369;28;20059;-57
2021/04/13 00:56:06;;;;;;;32.88;19.35;;;;;;;2.21;71.13;101714.22;5092727;28;20052;-58
2021/04/13 00:58:40;;;;;;;32.67;19.80;;;;;;;2.21;71.07;101713.38;5083086;28;20408;-56
2021/04/13 01:01:12;;;;;;;36.42;19.20;;;;;;;2.19;71.23;101710.00;5092457;28;20063;-59
2021/04/13 01:03:47;;;;;;;35.17;20.95;;;;;;;2.19;70.80;101710.84;5092541;28;20059;-57
2021/04/13 01:06:22;;;;;;;34.55;20.05;;;;;;;2.21;70.96;101716.13;5092084;28;20048;-59
2021/04/13 01:09:00;;;;;;;33.60;20.38;;;;;;;2.20;70.39;101717.19;5092925;28;20052;-59
2021/04/13 01:11:29;;;;;;;32.40;19.80;;;;;;;2.17;70.38;101723.16;5089847;28;20469;-59
2021/04/13 01:14:00;;;;;;;35.72;21.05;;;;;;;2.09;70.57;101718.78;5092972;28;20055;-59
2021/04/13 01:16:31;;;;;;;37.60;22.38;;;;;;;2.09;70.77;101720.69;5091922;28;20492;-58
2021/04/13 01:19:04;;;;;;;35.65;20.73;;;;;;;2.05;70.61;101716.72;5092745;28;20416;-58
2021/04/13 01:21:42;;;;;;;40.05;22.15;;;;;;;2.01;70.51;101713.56;5090592;28;20055;-59
2021/04/13 01:24:14;;;;;;;39.58;21.35;;;;;;;1.93;70.73;101703.72;5090179;28;20055;-57
2021/04/13 01:26:48;;;;;;;36.20;21.17;;;;;;;1.95;70.95;101704.34;5091551;28;20071;-58
2021/04/13 01:29:18;;;;;;;37.38;21.15;;;;;;;1.94;70.62;101696.31;5090597;28;20539;-58
2021/04/13 01:31:50;;;;;;;;;;;;;;;1.91;70.73;101705.88;5091978;28;20062;-58
2021/04/13 01:34:24;;;;;;;35.65;20.65;;;;;;;1.87;71.00;101701.03;5090817;28;19919;-58
2021/04/13 01:37:06;;;;;;;39.38;22.05;;;;;;;1.82;70.95;101704.47;5091455;28;20055;-57
2021/04/13 01:39:43;;;;;;;39.60;21.52;;;;;;;1.81;70.84;101708.28;5089635;28;20083;-58
2021/04/13 01:42:11;;;;;;;37.58;21.13;;;;;;;1.81;70.97;101713.78;5091110;28;20051;-58
2021/04/13 01:44:43;;;;;;;38.55;21.77;;;;;;;1.80;70.72;101717.56;5092499;28;20058;-59
2021/04/13 01:47:15;;;;;;;38.63;22.63;;;;;;;1.77;70.89;101718.88;5091215;28;20052;-57
2021/04/13 01:49:46;;;;;;;43.58;22.70;;;;;;;1.73;71.40;101716.81;5075487;28;20054;-59
2021/04/13 01:52:22;;;;;;;43.60;22.83;;;;;;;1.72;71.39;101723.34;5092634;28;20052;-59
2021/04/13 01:54:49;;;;;;;41.65;23.25;;;;;;;1.62;70.88;101716.47;5091749;28;20080;-59
2021/04/13 01:57:31;;;;;;;41.75;22.60;;;;;;;1.63;71.04;101722.78;5091731;28;20055;-58
2021/04/13 02:00:10;;;;;;;39.05;22.05;;;;;;;1.65;71.54;101720.66;5090098;28;20500;-59
2021/04/13 02:02:47;;;;;;;41.83;23.23;;;;;;;1.63;71.25;101723.63;5091517;28;20055;-58
2021/04/13 02:05:16;;;;;;;42.25;22.77;;;;;;;1.55;71.38;101729.41;5091485;28;20481;-56
2021/04/13 02:07:54;;;;;;;43.20;22.00;;;;;;;1.54;71.67;101730.47;5090806;28;20384;-55
2021/04/13 02:10:27;;;;;;;41.65;23.95;;;;;;;1.54;71.13;101733.22;5089962;28;20052;-56
2021/04/13 02:12:59;;;;;;;37.25;22.08;;;;;;;1.56;71.48;101733.84;5091326;28;20052;-58
2021/04/13 02:15:42;;;;;;;39.85;22.70;;;;;;;1.57;71.21;101735.50;5092701;28;20432;-59
2021/04/13 02:18:18;;;;;;;41.10;22.15;;;;;;;1.56;71.11;101739.31;5071947;28;20063;-59
2021/04/13 02:20:48;;;;;;;42.70;23.17;;;;;;;1.54;71.46;101735.13;5072273;28;20059;-59
2021/04/13 02:23:24;;;;;;;40.25;21.88;;;;;;;1.53;70.89;101730.69;5089894;28;20501;-59
2021/04/13 02:25:51;;;;;;;37.88;22.05;;;;;;;1.50;70.77;101734.72;5085240;28;20054;-56
2021/04/13 02:28:20;;;;;;;39.30;22.05;;;;;;;1.48;71.19;101736.84;5091416;28;20055;-55
2021/04/13 02:30:51;;;;;;;40.15;21.83;;;;;;;1.42;71.17;101735.00;5091201;28;20052;-59
2021/04/13 02:33:30;;;;;;;37.13;21.75;;;;;;;1.40;71.59;101735.22;5091241;28;20052;-55
2021/04/13 02:35:58;;;;;;;36.30;19.77;;;;;;;1.40;71.65;101732.47;5090276;28;20056;-58
2021/04/13 02:38:30;;;;;;;39.92;22.02;;;;;;;1.36;71.72;101741.38;5090163;28;20416;-57
2021/04/13 02:41:02;;;;;;;41.83;22.15;;;;;;;1.36;71.73;101733.97;5092028;28;20048;-58
2021/04/13 02:43:32;;;;;;;38.22;21.73;;;;;;;1.37;71.89;101734.84;5094585;28;20048;-58
2021/04/13 02:46:06;;;;;;;40.45;21.33;;;;;;;1.18;71.89;101734.75;5095513;28;20051;-59
2021/04/13 02:48:41;;;;;;;43.25;22.85;;;;;;;1.20;72.07;101735.38;5075238;28;20048;-57
2021/04/13 02:51:11;;;;;;;41.03;22.95;;;;;;;1.21;71.93;101737.03;5075761;28;20049;-57
2021/04/13 02:53:43;;;;;;;41.75;22.80;;;;;;;1.26;71.74;101741.00;5095427;28;20059;-59
2021/04/13 02:56:23;;;;;;;36.92;21.48;;;;;;;1.31;72.05;101746.69;5094700;28;20489;-59
2021/04/13 02:59:02;;;;;;;40.75;22.45;;;;;;;1.39;72.33;101752.75;5094027;28;20051;-58
2021/04/13 03:01:32;;;;;;;37.63;21.63;;;;;;;1.48;71.95;101742.34;5095435;28;20052;-59
2021/04/13 03:04:07;;;;;;;38.42;20.90;;;;;;;1.59;72.05;101744.34;5093975;28;20055;-58
2021/04/13 03:06:37;;;;;;;34.75;20.17;;;;;;;1.72;71.62;101750.81;5095312;28;20052;-56
2021/04/13 03:09:06;;;;;;;31.45;18.73;;;;;;;1.76;71.40;101746.56;5094648;28;20048;-58
2021/04/13 03:11:37;;;;;;;31.65;19.10;;;;;;;1.78;70.42;101739.78;5093585;28;20055;-59
2021/04/13 03:14:12;;;;;;;30.73;18.85;;;;;;;1.77;70.69;101742.75;5094366;28;20048;-58
2021/04/13 03:16:46;;;;;;;29.00;18.55;;;;;;;1.77;70.46;101740.00;5094856;28;20500;-58
2021/04/13 03:19:16;;;;;;;32.67;18.75;;;;;;;1.70;70.46;101744.72;5093830;28;20063;-56
2021/04/13 03:21:57;;;;;;;33.03;18.75;;;;;;;1.63;70.10;101736.53;5076541;28;20177;-59
2021/04/13 03:24:26;;;;;;;35.92;19.10;;;;;;;1.60;70.14;101743.31;5093466;28;20052;-59
2021/04/13 03:26:57;;;;;;;35.63;21.02;;;;;;;1.57;70.30;101748.41;5092355;28;20047;-58
2021/04/13 03:29:28;;;;;;;32.33;20.38;;;;;;;1.59;70.55;101738.88;5092967;28;20055;-59
2021/04/13 03:31:58;;;;;;;29.92;18.77;;;;;;;1.72;70.67;101745.31;5093611;28;20448;-58
2021/04/13 03:34:26;;;;;;;27.98;17.83;;;;;;;1.75;70.88;101742.16;5094696;28;20055;-59
2021/04/13 03:36:56;;;;;;;27.88;17.95;;;;;;;1.87;71.08;101743.09;5093437;28;20048;-59
2021/04/13 03:39:28;;;;;;;25.15;16.20;;;;;;;1.98;70.43;101742.34;5092731;28;20075;-59
2021/04/13 03:41:56;;;;;;;23.38;15.90;;;;;;;2.08;70.42;101746.47;5093326;28;20055;-58
2021/04/13 03:44:25;;;;;;;25.83;16.90;;;;;;;2.14;70.54;101748.31;5093589;28;20048;-58
2021/04/13 03:46:54;;;;;;;24.80;15.70;;;;;;;2.26;70.46;101743.75;5094635;28;20477;-59
2021/04/13 03:49:28;;;;;;;22.70;15.02;;;;;;;2.37;69.81;101737.53;5093208;28;20055;-59
2021/04/13 03:51:59;;;;;;;21.70;15.07;;;;;;;2.43;69.15;101742.09;5074125;28;20052;-58
2021/04/13 03:54:28;;;;;;;24.10;15.98;;;;;;;2.52;69.22;101741.78;5081530;28;20058;-60
2021/04/13 03:56:56;;;;;;;26.15;16.00;;;;;;;2.55;69.78;101744.91;5092056;28;20428;-57
2021/04/13 03:59:25;;;;;;;22.98;15.55;;;;;;;2.66;68.92;101751.56;5093379;28;20048;-58
2021/04/13 04:01:53;;;;;;;22.52;15.23;;;;;;;2.78;69.32;101752.47;5093038;28;20373;-57
2021/04/13 04:04:27;;;;;;;21.20;14.27;;;;;;;2.85;68.92;101744.13;5093255;28;20048;-54
2021/04/13 04:06:56;;;;;;;22.13;14.07;;;;;;;2.94;68.18;101750.16;5092801;28;20054;-58
2021/04/13 04:09:35;;;;;;;23.27;14.43;;;;;;;3.05;67.81;101739.19;5093860;28;20485;-57
2021/04/13 04:12:15;;;;;;;20.90;13.53;;;;;;;3.05;67.52;101741.13;5091864;28;20491;-59
2021/04/13 04:14:55;;;;;;;20.77;13.98;;;;;;;3.13;67.98;101738.03;5093977;28;20462;-58
2021/04/13 04:17:22;;;;;;;22.00;14.10;;;;;;;3.18;67.55;101751.94;5090101;28;20067;-58
2021/04/13 04:19:58;;;;;;;21.92;14.30;;;;;;;3.33;68.04;101753.44;5090164;28;20055;-57
2021/04/13 04:22:25;;;;;;;20.08;13.40;;;;;;;3.40;67.28;101751.41;5089367;28;20051;-58
2021/04/13 04:24:54;;;;;;;23.35;15.00;;;;;;;3.47;66.72;101752.16;5090812;28;20480;-55
2021/04/13 04:27:33;;;;;;;21.98;13.75;;;;;;;3.52;66.65;101755.03;5091223;28;20055;-57
2021/04/13 04:30:21;;;;;;;23.90;13.80;;;;;;;3.59;66.39;101764.06;5088661;28;20056;-58
2021/04/13 04:32:48;;;;;;;18.70;12.65;;;;;;;3.58;66.03;101765.13;5088358;28;20044;-58
2021/04/13 04:35:34;;;;;;;20.75;13.45;;;;;;;3.62;65.68;101771.84;5091853;28;20181;-58
2021/04/13 04:38:05;;;;;;;21.00;11.85;;;;;;;3.53;66.56;101765.00;5093214;28;20060;-57
2021/04/13 04:40:38;;;;;;;18.17;12.65;;;;;;;3.60;66.34;101771.22;5093654;28;20063;-60
2021/04/13 04:43:08;;;;;;;19.10;12.45;;;;;;;3.67;66.18;101771.13;5092341;28;20052;-56
2021/04/13 04:45:53;;;;;;;19.77;13.18;;;;;;;3.73;66.73;101780.38;5092966;28;20393;-58
2021/04/13 04:48:27;;;;;;;20.38;12.18;;;;;;;3.66;66.62;101778.56;5090146;28;20055;-57
2021/04/13 04:50:57;;;;;;;18.67;12.43;;;;;;;3.77;66.41;101776.06;5093226;28;20071;-58
2021/04/13 04:53:26;;;;;;;21.17;13.52;;;;;;;3.85;66.12;101783.97;5091541;28;20056;-58
2021/04/13 04:55:55;;;;;;;16.77;11.70;;;;;;;3.94;65.96;101790.00;5092586;28;20048;-57
2021/04/13 04:58:23;;;;;;;18.83;12.32;;;;;;;3.96;65.89;101783.16;5091311;28;20505;-56
2021/04/13 05:00:51;;;;;;;25.48;13.57;;;;;;;4.01;65.49;101787.94;5092779;28;20063;-57
2021/04/13 05:03:19;;;;;;;22.52;14.23;;;;;;;3.99;65.32;101784.59;5088163;28;20055;-58
2021/04/13 05:05:46;;;;;;;17.75;12.60;;;;;;;4.08;65.42;101791.44;5082436;28;20055;-57
2021/04/13 05:08:16;;;;;;;19.45;12.52;;;;;;;4.14;65.69;101793.25;5082378;28;20048;-56
2021/04/13 05:10:46;;;;;;;18.42;13.05;;;;;;;4.21;65.10;101791.19;5080005;28;20059;-58
2021/04/13 05:13:13;;;;;;;20.05;13.38;;;;;;;4.29;65.73;101786.44;5082404;28;20409;-57
2021/04/13 05:15:43;;;;;;;19.25;11.93;;;;;;;4.36;65.76;101790.72;5083510;28;20055;-58
2021/04/13 05:18:09;;;;;;;21.35;12.23;;;;;;;4.45;65.38;101794.81;5081194;28;20048;-57
2021/04/13 05:20:39;;;;;;;23.15;14.90;;;;;;;4.55;65.02;101793.34;5081003;28;20047;-58
2021/04/13 05:23:06;;;;;;;23.58;14.10;;;;;;;4.64;64.28;101797.41;5080655;28;20044;-57
2021/04/13 05:25:36;;;;;;;23.75;14.45;;;;;;;4.74;64.05;101810.59;5086465;28;20056;-57
2021/04/13 05:28:04;;;;;;;22.77;13.57;;;;;;;4.84;63.52;101806.13;5082236;28;20044;-58
2021/04/13 05:30:31;;;;;;;24.17;15.57;;;;;;;4.92;63.42;101815.16;5082521;28;20421;-58
2021/04/13 05:33:00;;;;;;;20.95;13.23;;;;;;;4.95;63.32;101815.47;5089478;28;20048;-57
2021/04/13 05:35:28;;;;;;;22.27;14.77;;;;;;;4.99;62.49;101811.16;5087071;28;20511;-58
2021/04/13 05:37:57;;;;;;;20.50;14.63;;;;;;;5.05;62.53;101821.22;5092450;28;20050;-58
2021/04/13 05:40:40;;;;;;;23.33;14.38;;;;;;;5.16;62.68;101832.47;5088836;28;20417;-59
2021/04/13 05:43:10;;;;;;;21.83;14.27;;;;;;;5.17;62.91;101834.19;5086282;28;20044;-53
2021/04/13 05:45:42;;;;;;;23.15;15.10;;;;;;;5.16;62.73;101838.00;5091016;28;20062;-59
2021/04/13 05:48:10;;;;;;;21.38;14.68;;;;;;;5.20;62.38;101834.50;5088079;28;20044;-61
2021/04/13 05:50:40;;;;;;;24.13;14.98;;;;;;;5.34;62.04;101837.84;5088681;28;20048;-60
2021/04/13 05:53:08;;;;;;;21.33;14.75;;;;;;;5.46;61.70;101837.81;5090642;28;20059;-61
2021/04/13 05:55:36;;;;;;;20.23;13.98;;;;;;;5.60;61.38;101833.63;5092185;28;20417;-61
2021/04/13 05:58:06;;;;;;;21.45;14.10;;;;;;;5.75;61.04;101840.53;5091642;28;20051;-59
2021/04/13 06:00:34;;;;;;;19.73;13.45;;;;;;;5.82;60.91;101832.94;5091781;28;20052;-60
2021/04/13 06:03:01;;;;;;;20.67;13.45;;;;;;;6.00;60.19;101849.31;5091817;28;20052;-60
2021/04/13 06:05:30;;;;;;;19.40;13.43;;;;;;;6.10;59.93;101841.19;5090166;28;20044;-60
2021/04/13 06:07:57;;;;;;;20.33;14.23;;;;;;;6.22;59.73;101841.13;5091752;28;20397;-59
2021/04/13 06:10:25;;;;;;;21.33;14.70;;;;;;;6.34;59.67;101843.81;5092384;28;20063;-60
2021/04/13 06:12:55;;;;;;;21.15;13.23;;;;;;;6.42;58.99;101850.84;5092052;28;20059;-58
2021/04/13 06:15:23;;;;;;;20.25;13.48;;;;;;;6.46;59.34;101843.69;5093130;28;20052;-60
2021/04/13 06:17:52;;;;;;;18.77;12.98;;;;;;;6.66;58.65;101845.97;5096080;28;20052;-60
2021/04/13 06:20:20;;;;;;;18.30;14.35;;;;;;;6.68;58.43;101852.91;5095228;28;20048;-60
2021/04/13 06:22:49;;;;;;;22.45;13.75;;;;;;;6.70;58.60;101855.44;5096480;28;20055;-59
2021/04/13 06:25:17;;;;;;;19.98;12.93;;;;;;;6.91;58.56;101867.63;5095150;28;20405;-56
2021/04/13 06:27:44;;;;;;;22.98;13.15;;;;;;;7.08;57.75;101865.66;5095994;28;20052;-58
2021/04/13 06:30:13;;;;;;;19.05;11.95;;;;;;;7.10;56.97;101859.88;5095225;28;20048;-60
2021/04/13 06:32:43;;;;;;;20.13;12.40;;;;;;;7.19;57.23;101860.25;5095573;28;20405;-59
2021/04/13 06:35:11;;;;;;;17.80;11.77;;;;;;;7.20;56.81;101860.00;5095844;28;20070;-60
2021/04/13 06:37:43;;;;;;;20.00;11.40;;;;;;;7.25;56.53;101867.53;5095588;28;20063;-60
2021/04/13 06:40:20;;;;;;;18.77;11.32;;;;;;;7.36;56.00;101874.03;5074777;28;20041;-61
2021/04/13 06:43:06;;;;;;;16.77;10.75;;;;;;;7.38;55.37;101875.44;5063333;28;20413;-59
2021/04/13 06:45:40;;;;;;;16.23;10.27;;;;;;;7.53;55.05;101874.78;5063436;28;20048;-61
2021/04/13 06:48:31;;;;;;;15.35;9.48;;;;;;;7.64;54.87;101882.16;5090373;28;20455;-61
2021/04/13 06:51:08;;;;;;;12.93;9.73;;;;;;;7.62;54.57;101870.47;5094288;28;20497;-61
2021/04/13 06:53:58;;;;;;;15.10;9.05;;;;;;;7.67;54.81;101880.78;5090438;28;20064;-61
2021/04/13 06:56:47;;;;;;;18.35;10.52;;;;;;;7.70;55.04;101877.47;5071711;28;20063;-59
2021/04/13 06:59:42;;;;;;;14.48;9.48;;;;;;;7.88;54.13;101884.63;5067749;28;20114;-59
2021/04/13 07:02:15;;;;;;;19.90;9.77;;;;;;;8.07;54.53;101880.34;5057566;28;20063;-60
2021/04/13 07:04:48;;;;;;;17.27;9.10;;;;;;;8.55;53.92;101880.53;5071516;28;20052;-60
2021/04/13 07:07:23;;;;;;;17.40;9.25;;;;;;;9.02;51.74;101878.88;5080330;28;20052;-61
2021/04/13 07:10:02;;;;;;;14.52;7.55;;;;;;;9.31;51.09;101888.47;5071199;28;20474;-61
2021/04/13 07:12:33;;;;;;;16.80;9.00;;;;;;;9.40;50.79;101887.97;5079669;28;20049;-60
2021/04/13 07:15:07;;;;;;;14.75;8.57;;;;;;;9.37;51.38;101894.91;5071614;28;20056;-60
2021/04/13 07:17:41;;;;;;;14.95;8.40;;;;;;;9.09;52.34;101896.13;5087032;28;20059;-61
2021/04/13 07:20:12;;;;;;;15.40;8.40;;;;;;;9.19;51.05;101896.19;5070800;28;20045;-61
2021/04/13 07:22:44;;;;;;;12.50;8.25;;;;;;;9.16;52.19;101893.16;5071629;28;20055;-60
2021/04/13 07:25:26;;;;;;;13.95;8.10;;;;;;;9.40;49.93;101899.09;5069218;28;20056;-61
2021/04/13 07:27:57;;;;;;;13.45;7.55;;;;;;;9.58;50.83;101901.38;5071760;28;20060;-61
2021/04/13 07:30:28;;;;;;;14.52;7.43;;;;;;;9.80;49.99;101903.94;5072079;28;20048;-61
2021/04/13 07:32:57;;;;;;;13.15;7.25;;;;;;;9.85;49.82;101900.34;5073480;28;20052;-62
2021/04/13 07:35:31;;;;;;;15.57;7.20;;;;;;;9.86;49.60;101902.84;5071083;28;20428;-61
2021/04/13 07:38:02;;;;;;;13.48;6.43;;;;;;;9.84;48.86;101907.03;5070550;28;20045;-60
2021/04/13 07:40:32;;;;;;;17.58;6.60;;;;;;;9.77;50.44;101903.69;5091745;28;20052;-60
2021/04/13 07:43:04;;;;;;;13.18;6.28;;;;;;;9.62;50.81;101908.09;5092971;28;20059;-60
2021/04/13 07:45:42;;;;;;;13.43;6.88;;;;;;;9.56;50.59;101903.59;5092545;28;20051;-61
2021/04/13 07:48:21;;;;;;;12.20;6.22;;;;;;;9.51;50.91;101900.78;5091545;28;20055;-61
2021/04/13 07:50:58;;;;;;;13.65;6.43;;;;;;;9.54;51.02;101908.59;5090242;28;20418;-61
2021/04/13 07:53:34;;;;;;;14.55;6.57;;;;;;;9.77;49.92;101906.47;5088566;28;20052;-61
2021/04/13 07:56:14;;;;;;;12.38;6.10;;;;;;;10.19;49.31;101911.00;5093009;28;20142;-61
2021/04/13 07:58:49;;;;;;;11.73;6.43;;;;;;;10.96;48.07;101909.91;5096494;28;20055;-61
2021/04/13 08:01:17;;;;;;;10.85;5.60;;;;;;;11.60;46.43;101901.03;5093114;28;20401;-61
2021/04/13 08:03:44;;;;;;;10.15;5.88;;;;;;;12.26;44.70;101905.41;5090637;28;20078;-62
2021/04/13 08:06:48;;;;;;;12.85;5.65;;;;;;;13.20;41.56;101899.50;5087890;28;20044;-61
2021/04/13 08:09:29;;;;;;;12.13;5.18;;;;;;;13.39;41.60;101900.41;5029598;28;20057;-62
2021/04/13 08:12:28;;;;;;;12.32;5.50;;;;;;;14.41;40.25;101897.31;5086201;28;20052;-62
2021/04/13 08:15:14;;;;;;;9.88;5.32;;;;;;;14.59;38.56;101907.69;5091117;28;20044;-61
2021/04/13 08:18:04;;;;;;;12.48;5.60;;;;;;;14.52;38.44;101898.78;5093273;28;20488;-62
2021/04/13 08:20:34;;;;;;;11.07;5.32;;;;;;;14.59;38.54;101901.22;5091639;28;20048;-62
2021/04/13 08:23:03;;;;;;;11.50;4.38;;;;;;;14.73;37.48;101898.47;5089690;28;20051;-62
2021/04/13 08:25:36;;;;;;;10.48;5.43;;;;;;;15.24;36.78;101903.13;5088383;28;20396;-62
2021/04/13 08:28:11;;;;;;;8.57;4.18;;;;;;;15.57;35.18;101886.16;5091739;28;20048;-62
2021/04/13 08:32:49;;;;;;;8.70;4.18;;;;;;;15.27;35.61;101891.28;5092243;28;20052;-63
2021/04/13 08:34:01;;;;;;;12.70;5.35;;;;;;;14.93;36.35;101894.44;5088015;28;20063;-63
2021/04/13 08:36:33;;;;;;;9.10;4.97;;;;;;;14.37;38.45;101896.25;5091036;28;20074;-61
2021/04/13 08:39:06;;;;;;;10.88;4.63;;;;;;;13.81;39.66;101893.16;5090443;28;20387;-61
2021/04/13 08:41:44;;;;;;;10.07;4.50;;;;;;;13.39;39.92;101902.38;5091821;28;20071;-61
2021/04/13 08:44:31;;;;;;;11.10;4.53;;;;;;;12.78;40.69;101896.28;5091201;28;20056;-63
2021/04/13 08:47:03;;;;;;;11.95;5.20;;;;;;;12.41;42.69;101899.72;5087235;28;20481;-62
2021/04/13 08:49:42;;;;;;;13.70;6.65;;;;;;;12.22;43.43;101898.72;5088339;28;20048;-62
2021/04/13 08:52:20;;;;;;;11.45;5.50;;;;;;;12.16;42.78;101903.53;5091003;28;20055;-62
2021/04/13 08:54:49;;;;;;;11.73;5.75;;;;;;;15.59;36.76;101895.94;5091419;28;20410;-62
2021/04/13 08:57:34;;;;;;;11.27;5.63;;;;;;;17.18;34.31;101889.25;5091661;28;20052;-63
2021/04/13 09:00:26;;;;;;;11.57;4.72;;;;;;;20.12;28.59;101883.81;5085773;28;20122;-63
2021/04/13 09:02:58;;;;;;;9.50;4.60;;;;;;;23.07;24.33;101878.81;5073685;28;20045;-63
2021/04/13 09:05:27;;;;;;;9.45;4.50;;;;;;;25.34;20.26;101873.16;5089606;28;20051;-62
2021/04/13 09:08:02;;;;;;;9.13;3.40;;;;;;;24.81;21.40;101881.56;5090081;28;20043;-62
2021/04/13 09:10:34;;;;;;;7.40;3.35;;;;;;;23.28;21.02;101881.41;5091693;28;20056;-62
2021/04/13 09:13:27;;;;;;;6.57;3.35;;;;;;;26.28;18.84;101873.31;5091493;28;20048;-62
2021/04/13 09:16:03;;;;;;;6.82;4.00;;;;;;;28.97;16.41;101868.72;5075644;28;20044;-62
2021/04/13 09:18:38;;;;;;;9.27;3.30;;;;;;;30.50;14.15;101858.19;5088749;28;20055;-62
2021/04/13 09:21:26;;;;;;;6.68;2.80;;;;;;;28.45;14.94;101871.03;5090420;28;20134;-62
2021/04/13 09:24:06;;;;;;;8.33;2.70;;;;;;;28.35;15.10;101869.78;5086984;28;20048;-62
2021/04/13 09:26:43;;;;;;;7.55;2.85;;;;;;;26.24;17.02;101872.44;5087734;28;20044;-62
2021/04/13 09:29:32;;;;;;;7.05;3.22;;;;;;;23.78;19.44;101884.66;5088772;28;20071;-61
2021/04/13 09:32:00;;;;;;;8.73;2.20;;;;;;;22.12;21.68;101878.53;5088824;28;20048;-63
2021/04/13 09:34:37;;;;;;;7.80;2.13;;;;;;;20.59;23.06;101884.38;5091268;28;20058;-61
2021/04/13 09:37:26;;;;;;;6.43;1.80;;;;;;;19.23;24.54;101879.00;5084009;28;20437;-62
2021/04/13 09:40:16;;;;;;;7.65;1.83;;;;;;;18.14;27.06;101878.22;5088836;28;20477;-61
2021/04/13 09:43:10;;;;;;;9.13;2.78;;;;;;;19.26;25.63;101881.16;5089409;28;20048;-61
2021/04/13 09:45:52;;;;;;;5.68;2.60;;;;;;;23.27;21.58;101876.09;5080424;28;20115;-62
2021/04/13 09:48:38;;;;;;;8.00;2.40;;;;;;;26.28;17.80;101864.75;5089412;28;20066;-61
2021/04/13 09:51:16;;;;;;;5.05;2.20;;;;;;;28.87;15.17;101860.91;5089484;28;20396;-62
2021/04/13 09:54:17;;;;;;;5.90;2.25;;;;;;;29.76;13.60;101857.25;5091140;28;20492;-62
2021/04/13 09:57:11;;;;;;;8.02;2.85;;;;;;;32.02;11.53;101849.13;5084968;28;20052;-62
2021/04/13 09:59:52;;;;;;;6.30;2.38;;;;;;;33.38;11.59;101841.34;5091214;28;20071;-63
2021/04/13 10:02:35;;;;;;;4.80;2.13;;;;;;;35.27;9.22;101837.69;5090003;28;20052;-63
2021/04/13 10:05:04;;;;;;;6.25;1.67;;;;;;;33.49;10.48;101836.19;5088318;28;20048;-64
2021/04/13 10:07:38;;;;;;;;;;;;;;;31.73;11.76;101840.78;5087208;28;20063;-64
2021/04/13 10:10:08;;;;;;;6.05;2.08;;;;;;;29.58;13.65;101847.81;5088437;28;19927;-62
2021/04/13 10:13:20;;;;;;;6.47;1.70;;;;;;;27.02;15.01;101837.38;5090388;28;20079;-63
2021/04/13 10:16:03;;;;;;;4.13;1.40;;;;;;;25.70;15.62;101839.47;5035690;28;20056;-63
2021/04/13 10:19:01;;;;;;;6.03;1.83;;;;;;;24.29;17.50;101844.69;5082865;28;20067;-62
2021/04/13 10:22:17;;;;;;;6.40;1.90;;;;;;;22.55;19.68;101851.41;5082168;28;20052;-62
2021/04/13 10:25:15;;;;;;;5.25;1.95;;;;;;;21.41;21.24;101843.06;5080852;28;20055;-62
2021/04/13 10:28:11;;;;;;;6.40;2.05;;;;;;;20.55;21.76;101838.09;5090958;28;20059;-63
2021/04/13 10:31:20;;;;;;;6.00;2.25;;;;;;;21.91;21.24;101832.50;5086843;28;20079;-62
2021/04/13 10:34:38;;;;;;;5.15;2.30;;;;;;;26.80;16.24;101826.97;5089683;28;20396;-62
2021/04/13 10:37:43;;;;;;;4.68;1.90;;;;;;;29.14;13.51;101813.41;5022172;28;20768;-63
2021/04/13 10:40:39;;;;;;;4.72;2.17;;;;;;;32.21;11.28;101819.63;5023238;28;20076;-63
2021/04/13 10:43:43;;;;;;;4.95;2.70;;;;;;;34.30;9.60;101808.97;5087272;28;20052;-63
2021/04/13 10:46:24;;;;;;;4.25;2.05;;;;;;;35.28;8.49;101807.44;5089096;28;20404;-63
2021/04/13 10:49:05;;;;;;;5.30;2.50;;;;;;;36.56;7.48;101805.78;5090141;28;20048;-63
2021/04/13 10:52:10;;;;;;;4.95;1.83;;;;;;;37.64;7.36;101799.22;5083867;28;20055;-64
2021/04/13 10:55:00;;;;;;;3.92;2.22;;;;;;;38.27;6.62;101797.22;5079679;28;20056;-64
2021/04/13 10:58:07;;;;;;;4.45;1.80;;;;;;;34.08;8.09;101799.13;5091124;28;20055;-64
2021/04/13 11:00:41;;;;;;;5.47;1.77;;;;;;;31.40;10.57;101796.28;5092875;28;20055;-67
2021/04/13 11:03:55;;;;;;;5.55;1.83;;;;;;;29.21;11.73;101801.13;5095238;28;20433;-64
2021/04/13 11:06:52;;;;;;;4.68;1.65;;;;;;;26.82;13.71;101805.34;5089384;28;20056;-64
2021/04/13 11:10:01;;;;;;;4.65;1.58;;;;;;;24.68;16.38;101813.34;5091781;28;20504;-63
2021/04/13 11:12:57;;;;;;;4.97;1.48;;;;;;;23.09;17.70;101811.06;5059735;28;20055;-63
2021/04/13 11:15:43;;;;;;;4.53;1.73;;;;;;;21.70;19.10;101810.81;5091127;28;20060;-63
2021/04/13 11:18:29;;;;;;;5.15;1.30;;;;;;;20.76;21.24;101817.44;5091155;28;20055;-63
2021/04/13 11:21:33;;;;;;;3.83;1.73;;;;;;;20.92;20.82;101814.75;5092538;28;20052;-63
2021/04/13 11:24:36;;;;;;;7.22;2.22;;;;;;;26.09;15.80;101797.19;5080272;28;20059;-63
2021/04/13 11:27:41;;;;;;;3.85;2.10;;;;;;;29.50;12.69;101790.41;5091233;28;20500;-63
2021/04/13 11:31:05;;;;;;;6.30;2.15;;;;;;;31.98;10.65;101799.31;5091195;28;20393;-63
2021/04/13 11:34:04;;;;;;;4.63;1.58;;;;;;;32.00;9.35;101782.44;5092008;28;20051;-63
2021/04/13 11:36:40;;;;;;;;;;;;;;;33.34;8.85;101782.84;5091818;28;20151;-64
2021/04/13 11:39:21;;;;;;;3.65;1.23;;;;;;;30.28;10.35;101777.00;5091383;28;19931;-64
2021/04/13 11:42:17;;;;;;;4.40;1.55;;;;;;;28.65;12.16;101786.34;5091293;28;20052;-64
2021/04/13 11:44:58;;;;;;;4.35;1.73;;;;;;;32.62;9.12;101781.16;5085955;28;20070;-63
2021/04/13 11:47:36;;;;;;;5.10;1.58;;;;;;;34.65;8.26;101774.72;5091973;28;20723;-64
2021/04/13 11:50:13;;;;;;;5.88;1.98;;;;;;;35.80;7.42;101785.31;5090295;28;20044;-64
2021/04/13 11:52:46;;;;;;;3.40;1.90;;;;;;;36.94;7.45;101778.03;5088847;28;20056;-63
2021/04/13 11:55:45;;;;;;;4.57;2.10;;;;;;;37.55;7.54;101773.75;5084942;28;20052;-64
2021/04/13 11:58:16;;;;;;;;;;;;;;;37.45;6.75;101772.06;5074810;28;20397;-64
2021/04/13 12:00:44;;;;;;;2.90;1.10;;;;;;;37.22;6.80;101779.13;5073597;28;20399;-63
2021/04/13 12:03:24;;;;;;;3.85;1.30;;;;;;;34.33;7.78;101782.06;5093608;28;20044;-63
2021/04/13 12:05:53;;;;;;;4.32;1.27;;;;;;;31.35;9.73;101788.91;5091384;28;20052;-63
2021/04/13 12:08:52;;;;;;;3.13;1.20;;;;;;;28.92;11.82;101788.81;5091275;28;20047;-63